createdAt,value
2022-12-25T00:00:32.387Z,50.85
2022-12-25T00:03:04.532Z,46.13
2022-12-25T00:05:39.779Z,50.80
2022-12-25T00:08:11.721Z,60.33
2022-12-25T00:10:45.625Z,62.22
2022-12-25T00:13:17.706Z,63.05
2022-12-25T00:15:49.708Z,50.17
2022-12-25T00:18:22.315Z,43.47
2022-12-25T00:21:04.489Z,61.05
2022-12-25T00:23:36.519Z,61.50
2022-12-25T00:26:17.296Z,54.80
2022-12-25T00:28:56.236Z,52.08
2022-12-25T00:31:28.465Z,64.32
2022-12-25T00:34:00.423Z,55.30
2022-12-25T00:36:37.771Z,60.03
2022-12-25T00:39:13.234Z,85.05
2022-12-25T00:42:03.954Z,61.58
2022-12-25T00:44:36.109Z,60.35
2022-12-25T00:47:08.175Z,69.53
2022-12-25T00:49:40.309Z,68.72
2022-12-25T00:52:12.262Z,61.38
2022-12-25T00:54:44.236Z,75.60
2022-12-25T00:57:16.280Z,67.72
2022-12-25T00:59:48.223Z,65.18
2022-12-25T01:02:26.300Z,59.80
2022-12-25T01:04:58.448Z,50.00
2022-12-25T01:07:30.499Z,54.65
2022-12-25T01:10:20.852Z,45.53
2022-12-25T01:15:24.852Z,47.42
2022-12-25T01:17:56.830Z,66.05
2022-12-25T01:20:28.795Z,62.15
2022-12-25T01:23:00.739Z,60.50
2022-12-25T01:25:35.626Z,59.83
2022-12-25T01:28:08.121Z,71.82
2022-12-25T01:30:40.344Z,58.13
2022-12-25T01:33:12.369Z,51.13
2022-12-25T01:35:44.328Z,51.97
2022-12-25T01:38:16.332Z,63.45
2022-12-25T01:40:48.273Z,47.80
2022-12-25T01:43:27.766Z,63.10
2022-12-25T01:46:00.200Z,60.60
2022-12-25T01:48:38.577Z,54.22
2022-12-25T01:51:27.224Z,56.75
2022-12-25T01:54:04.864Z,60.30
2022-12-25T01:56:39.271Z,56.95
2022-12-25T01:59:14.065Z,59.65
2022-12-25T02:01:47.192Z,53.53
2022-12-25T02:04:52.450Z,54.17
2022-12-25T02:07:27.406Z,58.45
2022-12-25T02:09:59.469Z,52.67
2022-12-25T02:12:34.617Z,56.08
2022-12-25T02:15:12.392Z,58.15
2022-12-25T02:18:12.821Z,66.28
2022-12-25T02:21:01.423Z,67.82
2022-12-25T02:23:51.869Z,56.30
2022-12-25T02:27:18.438Z,68.15
2022-12-25T02:30:11.521Z,61.03
2022-12-25T02:32:52.123Z,59.70
2022-12-25T02:35:27.747Z,54.33
2022-12-25T02:38:10.332Z,63.38
2022-12-25T02:40:50.170Z,62.03
2022-12-25T02:43:48.637Z,60.70
2022-12-25T02:46:43.133Z,68.68
2022-12-25T02:49:44.511Z,59.17
2022-12-25T02:52:39.848Z,57.67
2022-12-25T02:55:40.810Z,55.35
2022-12-25T02:58:36.998Z,74.53
2022-12-25T03:01:39.807Z,80.95
2022-12-25T03:04:36.152Z,64.50
2022-12-25T03:07:14.246Z,76.93
2022-12-25T03:10:19.742Z,75.57
2022-12-25T03:13:01.957Z,75.70
2022-12-25T03:15:53.866Z,68.85
2022-12-25T03:18:28.808Z,70.95
2022-12-25T03:21:20.124Z,50.70
2022-12-25T03:24:15.716Z,59.80
2022-12-25T03:26:57.084Z,54.58
2022-12-25T03:29:56.483Z,66.25
2022-12-25T03:33:23.284Z,58.83
2022-12-25T03:36:18.569Z,69.78
2022-12-25T03:39:29.212Z,56.90
2022-12-25T03:42:22.870Z,68.22
2022-12-25T03:45:25.639Z,59.80
2022-12-25T03:48:12.863Z,59.38
2022-12-25T03:51:11.092Z,76.85
2022-12-25T03:54:11.653Z,86.57
2022-12-25T03:57:03.003Z,50.53
2022-12-25T03:59:53.561Z,55.58
2022-12-25T04:02:44.268Z,56.35
2022-12-25T04:05:35.378Z,52.33
2022-12-25T04:08:26.169Z,56.92
2022-12-25T04:11:16.609Z,44.97
2022-12-25T04:14:07.283Z,53.10
2022-12-25T04:16:57.797Z,71.10
2022-12-25T04:19:48.063Z,51.90
2022-12-25T04:25:28.464Z,55.50
2022-12-25T04:28:23.084Z,45.90
2022-12-25T04:31:13.686Z,59.90
2022-12-25T04:34:04.723Z,50.88
2022-12-25T04:36:36.728Z,55.92
2022-12-25T04:39:09.976Z,52.53
2022-12-25T04:41:41.990Z,50.28
2022-12-25T04:44:14.108Z,53.92
2022-12-25T04:46:46.120Z,52.75
2022-12-25T04:49:18.140Z,46.53
2022-12-25T04:51:50.074Z,56.20
2022-12-25T04:54:22.114Z,61.00
2022-12-25T04:56:54.059Z,44.97
2022-12-25T04:59:26.034Z,52.97
2022-12-25T05:01:58.187Z,60.15
2022-12-25T05:04:30.187Z,47.70
2022-12-25T05:07:02.163Z,58.65
2022-12-25T05:09:34.118Z,53.35
2022-12-25T05:12:06.118Z,53.20
2022-12-25T05:14:39.273Z,60.97
2022-12-25T05:17:11.252Z,58.58
2022-12-25T05:19:43.324Z,51.05
2022-12-25T05:22:15.349Z,56.28
2022-12-25T05:24:47.275Z,63.08
2022-12-25T05:27:19.211Z,43.58
2022-12-25T05:29:51.209Z,44.47
2022-12-25T05:32:23.145Z,63.03
2022-12-25T05:34:55.073Z,50.25
2022-12-25T05:37:27.243Z,51.88
2022-12-25T05:39:59.299Z,58.33
2022-12-25T05:42:31.323Z,69.55
2022-12-25T05:45:03.301Z,46.90
2022-12-25T05:47:35.253Z,59.95
2022-12-25T05:50:08.378Z,53.70
2022-12-25T05:52:40.330Z,51.45
2022-12-25T05:55:12.267Z,49.55
2022-12-25T05:57:44.357Z,40.88
2022-12-25T06:00:16.695Z,52.22
2022-12-25T06:02:48.957Z,58.80
2022-12-25T06:05:21.176Z,50.25
2022-12-25T06:07:53.309Z,57.30
2022-12-25T06:10:25.264Z,49.75
2022-12-25T06:12:57.230Z,46.75
2022-12-25T06:15:29.453Z,44.17
2022-12-25T06:18:01.899Z,47.58
2022-12-25T06:20:36.962Z,43.38
2022-12-25T06:23:10.072Z,37.53
2022-12-25T06:25:42.162Z,46.42
2022-12-25T06:28:14.169Z,40.63
2022-12-25T06:30:46.109Z,37.42
2022-12-25T06:33:18.077Z,45.00
2022-12-25T06:35:50.041Z,40.92
2022-12-25T06:38:22.004Z,40.13
2022-12-25T06:40:53.953Z,56.58
2022-12-25T06:43:25.920Z,36.25
2022-12-25T06:46:02.485Z,37.75
2022-12-25T06:48:35.385Z,54.70
2022-12-25T06:51:07.987Z,52.40
2022-12-25T06:53:40.931Z,42.88
2022-12-25T06:56:16.493Z,47.58
2022-12-25T06:58:55.300Z,36.60
2022-12-25T07:01:36.288Z,45.85
2022-12-25T07:04:25.687Z,39.97
2022-12-25T07:07:03.065Z,35.17
2022-12-25T07:09:39.350Z,34.85
2022-12-25T07:12:20.038Z,60.13
2022-12-25T07:14:55.181Z,35.17
2022-12-25T07:17:27.117Z,32.95
2022-12-25T07:19:59.072Z,37.38
2022-12-25T07:22:31.085Z,29.23
2022-12-25T07:25:03.091Z,36.42
2022-12-25T07:27:35.036Z,33.10
2022-12-25T07:30:08.106Z,48.80
2022-12-25T07:32:40.952Z,35.80
2022-12-25T07:35:15.636Z,45.50
2022-12-25T07:37:47.547Z,32.38
2022-12-25T07:40:19.553Z,24.25
2022-12-25T07:42:51.468Z,31.70
2022-12-25T07:45:23.510Z,37.83
2022-12-25T07:47:56.907Z,32.85
2022-12-25T07:50:31.014Z,23.05
2022-12-25T07:53:02.998Z,38.90
2022-12-25T07:55:35.284Z,46.38
2022-12-25T07:58:07.361Z,35.38
2022-12-25T08:00:39.410Z,23.48
2022-12-25T08:03:11.740Z,34.42
2022-12-25T08:05:43.855Z,32.15
2022-12-25T08:08:15.838Z,33.92
2022-12-25T08:10:48.506Z,36.60
2022-12-25T08:13:20.502Z,36.90
2022-12-25T08:16:02.237Z,33.30
2022-12-25T08:18:34.899Z,40.72
2022-12-25T08:21:13.762Z,33.17
2022-12-25T08:23:47.157Z,39.92
2022-12-25T08:26:22.635Z,36.88
2022-12-25T08:28:54.639Z,35.97
2022-12-25T08:31:29.912Z,43.88
2022-12-25T08:34:03.803Z,29.63
2022-12-25T08:36:36.668Z,23.30
2022-12-25T08:39:08.986Z,38.05
2022-12-25T08:41:41.020Z,42.45
2022-12-25T08:44:13.061Z,34.72
2022-12-25T08:46:45.120Z,25.83
2022-12-25T08:49:17.200Z,32.13
2022-12-25T08:51:49.236Z,23.92
2022-12-25T08:54:21.309Z,26.80
2022-12-25T08:56:56.125Z,40.22
2022-12-25T08:59:34.111Z,30.55
2022-12-25T09:02:06.585Z,22.15
2022-12-25T09:04:38.744Z,25.30
2022-12-25T09:07:11.755Z,26.33
2022-12-25T09:09:43.780Z,26.67
2022-12-25T09:12:15.823Z,29.45
2022-12-25T09:14:47.820Z,27.40
2022-12-25T09:17:19.813Z,28.30
2022-12-25T09:19:51.757Z,38.53
2022-12-25T09:22:23.797Z,25.40
2022-12-25T09:24:55.759Z,26.92
2022-12-25T09:27:27.822Z,31.02
2022-12-25T09:29:59.807Z,34.42
2022-12-25T09:32:31.872Z,22.20
2022-12-25T09:35:03.933Z,35.22
2022-12-25T09:37:36.202Z,23.88
2022-12-25T09:40:12.185Z,25.98
2022-12-25T09:42:45.233Z,33.25
2022-12-25T09:45:36.828Z,29.80
2022-12-25T09:48:15.997Z,25.92
2022-12-25T09:50:54.639Z,25.02
2022-12-25T09:53:32.675Z,27.52
2022-12-25T09:56:17.346Z,29.92
2022-12-25T09:58:49.317Z,20.75
2022-12-25T10:01:57.045Z,30.08
2022-12-25T10:05:21.191Z,26.45
2022-12-25T10:08:20.921Z,21.98
2022-12-25T10:11:26.619Z,27.15
2022-12-25T10:14:26.162Z,23.73
2022-12-25T10:17:41.512Z,26.02
2022-12-25T10:20:40.333Z,25.02
2022-12-25T10:23:39.643Z,20.13
2022-12-25T10:26:18.574Z,28.33
2022-12-25T10:29:26.481Z,21.52
2022-12-25T10:31:58.568Z,26.02
2022-12-25T10:34:30.607Z,26.25
2022-12-25T10:37:02.682Z,20.92
2022-12-25T10:39:36.705Z,38.83
2022-12-25T10:42:22.420Z,25.58
2022-12-25T10:45:02.163Z,21.42
2022-12-25T10:47:44.659Z,21.42
2022-12-25T10:50:26.269Z,31.95
2022-12-25T10:53:06.305Z,23.80
2022-12-25T10:55:38.288Z,20.55
2022-12-25T10:58:20.430Z,18.25
2022-12-25T11:01:05.734Z,27.13
2022-12-25T11:03:52.546Z,25.23
2022-12-25T11:06:31.304Z,33.83
2022-12-25T11:09:04.138Z,24.98
2022-12-25T11:11:38.228Z,24.05
2022-12-25T11:14:19.340Z,18.45
2022-12-25T11:16:51.398Z,24.90
2022-12-25T11:19:32.484Z,23.77
2022-12-25T11:22:05.289Z,29.27
2022-12-25T11:24:37.285Z,28.42
2022-12-25T11:27:29.965Z,19.27
2022-12-25T11:30:05.047Z,20.45
2022-12-25T11:32:55.606Z,23.75
2022-12-25T11:35:32.380Z,14.57
2022-12-25T11:38:04.556Z,19.42
2022-12-25T11:40:48.303Z,29.50
2022-12-25T11:43:28.061Z,26.42
2022-12-25T11:46:26.023Z,19.20
2022-12-25T11:49:06.139Z,20.50
2022-12-25T11:51:42.012Z,23.55
2022-12-25T11:54:30.408Z,24.02
2022-12-25T11:57:05.860Z,28.63
2022-12-25T11:59:51.124Z,22.90
2022-12-25T12:02:40.067Z,24.55
2022-12-25T12:05:23.769Z,17.25
2022-12-25T12:08:02.563Z,21.27
2022-12-25T12:11:17.641Z,26.45
2022-12-25T12:14:26.990Z,19.75
2022-12-25T12:17:00.529Z,19.15
2022-12-25T12:19:34.879Z,17.05
2022-12-25T12:22:08.187Z,25.35
2022-12-25T12:24:43.466Z,18.95
2022-12-25T12:27:35.518Z,23.15
2022-12-25T12:30:26.322Z,21.23
2022-12-25T12:33:02.216Z,18.58
2022-12-25T12:35:38.084Z,24.63
2022-12-25T12:38:19.287Z,19.73
2022-12-25T12:41:07.719Z,19.20
2022-12-25T12:43:59.557Z,20.40
2022-12-25T12:46:36.901Z,17.83
2022-12-25T12:49:26.259Z,18.70
2022-12-25T12:52:34.929Z,17.95
2022-12-25T12:55:15.090Z,23.92
2022-12-25T12:58:01.767Z,24.15
2022-12-25T13:00:43.538Z,20.13
2022-12-25T13:03:49.449Z,21.08
2022-12-25T13:06:35.058Z,19.55
2022-12-25T13:09:45.677Z,21.75
2022-12-25T13:12:19.381Z,18.70
2022-12-25T13:14:51.474Z,29.48
2022-12-25T13:17:26.002Z,24.55
2022-12-25T13:20:00.064Z,20.45
2022-12-25T13:22:36.837Z,26.17
2022-12-25T13:25:21.579Z,22.48
2022-12-25T13:27:58.548Z,20.00
2022-12-25T13:30:30.506Z,21.77
2022-12-25T13:33:03.954Z,22.58
2022-12-25T13:35:43.270Z,20.73
2022-12-25T13:38:17.879Z,24.73
2022-12-25T13:41:14.480Z,18.38
2022-12-25T13:43:49.020Z,21.00
2022-12-25T13:46:27.497Z,27.33
2022-12-25T13:49:01.349Z,27.65
2022-12-25T13:51:33.316Z,22.27
2022-12-25T13:54:07.118Z,25.10
2022-12-25T13:56:51.256Z,28.30
2022-12-25T13:59:25.636Z,17.17
2022-12-25T14:01:57.936Z,23.90
2022-12-25T14:04:29.963Z,28.15
2022-12-25T14:07:10.657Z,27.35
2022-12-25T14:09:42.700Z,24.88
2022-12-25T14:12:19.334Z,25.65
2022-12-25T14:14:53.161Z,25.65
2022-12-25T14:17:25.808Z,24.70
2022-12-25T14:20:06.051Z,31.42
2022-12-25T14:22:41.713Z,20.58
2022-12-25T14:25:17.331Z,23.55
2022-12-25T14:27:51.238Z,23.40
2022-12-25T14:30:27.691Z,24.83
2022-12-25T14:32:59.839Z,24.92
2022-12-25T14:35:31.830Z,23.08
2022-12-25T14:38:04.586Z,30.40
2022-12-25T14:40:37.264Z,22.33
2022-12-25T14:43:26.761Z,25.00
2022-12-25T14:46:03.169Z,23.73
2022-12-25T14:48:35.214Z,29.67
2022-12-25T14:51:17.353Z,25.52
2022-12-25T14:53:53.704Z,27.70
2022-12-25T14:56:27.853Z,23.05
2022-12-25T14:59:00.567Z,23.45
2022-12-25T15:01:40.506Z,25.20
2022-12-25T15:04:16.945Z,32.55
2022-12-25T15:07:02.559Z,29.92
2022-12-25T15:09:36.143Z,25.23
2022-12-25T15:12:08.248Z,25.67
2022-12-25T15:14:40.349Z,32.97
2022-12-25T15:17:26.857Z,24.88
2022-12-25T15:20:02.542Z,32.80
2022-12-25T15:22:54.162Z,25.25
2022-12-25T15:25:28.867Z,32.38
2022-12-25T15:28:00.944Z,34.17
2022-12-25T15:30:35.515Z,35.45
2022-12-25T15:33:07.709Z,30.15
2022-12-25T15:35:39.727Z,35.83
2022-12-25T15:38:13.319Z,45.20
2022-12-25T15:40:45.331Z,36.03
2022-12-25T15:46:10.096Z,35.63
2022-12-25T15:48:42.339Z,31.25
2022-12-25T15:51:14.314Z,37.00
2022-12-25T15:53:46.374Z,38.10
2022-12-25T15:56:19.176Z,33.00
2022-12-25T15:58:51.287Z,33.83
2022-12-25T16:01:23.332Z,33.03
2022-12-25T16:03:55.540Z,42.03
2022-12-25T16:06:27.525Z,38.95
2022-12-25T16:08:59.542Z,32.72
2022-12-25T16:11:31.578Z,35.75
2022-12-25T16:14:03.575Z,29.65
2022-12-25T16:16:36.062Z,31.50
2022-12-25T16:19:08.536Z,30.92
2022-12-25T16:21:44.967Z,39.92
2022-12-25T16:24:17.091Z,37.22
2022-12-25T16:26:49.241Z,32.35
2022-12-25T16:29:21.352Z,32.80
2022-12-25T16:31:53.366Z,28.50
2022-12-25T16:34:25.419Z,42.35
2022-12-25T16:36:57.472Z,32.78
2022-12-25T16:39:29.444Z,28.42
2022-12-25T16:42:01.478Z,35.03
2022-12-25T16:44:37.404Z,31.50
2022-12-25T16:47:09.410Z,32.55
2022-12-25T16:49:41.441Z,29.67
2022-12-25T16:52:13.537Z,34.60
2022-12-25T16:54:46.985Z,32.08
2022-12-25T16:57:18.955Z,38.08
2022-12-25T16:59:51.425Z,41.13
2022-12-25T17:02:23.615Z,32.83
2022-12-25T17:04:55.809Z,39.92
2022-12-25T17:07:27.765Z,39.72
2022-12-25T17:09:59.861Z,41.55
2022-12-25T17:12:35.067Z,34.25
2022-12-25T17:15:08.075Z,37.15
2022-12-25T17:17:40.061Z,37.92
2022-12-25T17:20:12.616Z,36.03
2022-12-25T17:22:44.667Z,38.13
2022-12-25T17:25:16.708Z,35.80
2022-12-25T17:27:52.087Z,34.45
2022-12-25T17:30:27.099Z,37.60
2022-12-25T17:32:59.242Z,64.97
2022-12-25T17:35:35.376Z,44.63
2022-12-25T17:38:08.256Z,37.20
2022-12-25T17:40:40.473Z,43.25
2022-12-25T17:43:18.850Z,38.60
2022-12-25T17:45:55.652Z,31.48
2022-12-25T17:48:27.597Z,32.33
2022-12-25T17:51:08.540Z,34.05
2022-12-25T17:53:44.077Z,38.03
2022-12-25T17:56:17.820Z,35.22
2022-12-25T17:58:58.922Z,34.15
2022-12-25T18:01:31.329Z,32.65
2022-12-25T18:04:04.320Z,34.00
2022-12-25T18:06:37.081Z,33.15
2022-12-25T18:09:11.220Z,33.10
2022-12-25T18:11:46.453Z,39.22
2022-12-25T18:14:18.600Z,31.85
2022-12-25T18:16:50.718Z,35.72
2022-12-25T18:19:22.715Z,36.00
2022-12-25T18:21:54.731Z,35.92
2022-12-25T18:24:26.816Z,32.75
2022-12-25T18:26:58.846Z,39.17
2022-12-25T18:29:30.872Z,36.90
2022-12-25T18:32:02.988Z,37.80
2022-12-25T18:34:35.041Z,32.58
2022-12-25T18:37:07.043Z,31.27
2022-12-25T18:39:38.992Z,36.88
2022-12-25T18:42:29.282Z,37.13
2022-12-25T18:47:35.603Z,42.47
2022-12-25T18:50:08.854Z,37.25
2022-12-25T18:52:48.335Z,33.75
2022-12-25T18:55:23.365Z,36.17
2022-12-25T18:57:56.148Z,34.55
2022-12-25T19:00:28.238Z,34.17
2022-12-25T19:03:00.475Z,36.05
2022-12-25T19:05:32.699Z,32.97
2022-12-25T19:08:04.943Z,32.65
2022-12-25T19:10:39.806Z,33.47
2022-12-25T19:13:11.884Z,32.10
2022-12-25T19:15:43.899Z,30.58
2022-12-25T19:18:15.883Z,31.05
2022-12-25T19:20:47.940Z,32.75
2022-12-25T19:23:20.019Z,35.83
2022-12-25T19:25:51.952Z,37.15
2022-12-25T19:28:25.288Z,40.30
2022-12-25T19:31:00.180Z,38.88
2022-12-25T19:33:33.032Z,32.13
2022-12-25T19:36:09.367Z,36.45
2022-12-25T19:38:42.200Z,36.13
2022-12-25T19:41:19.373Z,39.92
2022-12-25T19:43:52.300Z,37.55
2022-12-25T19:46:31.558Z,35.22
2022-12-25T19:49:07.781Z,36.50
2022-12-25T19:51:45.713Z,36.30
2022-12-25T19:54:20.654Z,39.47
2022-12-25T19:56:52.651Z,35.88
2022-12-25T19:59:24.782Z,39.05
2022-12-25T20:01:56.924Z,44.47
2022-12-25T20:04:29.102Z,35.95
2022-12-25T20:07:01.223Z,32.85
2022-12-25T20:09:33.217Z,40.20
2022-12-25T20:12:05.845Z,38.00
2022-12-25T20:14:37.888Z,38.20
2022-12-25T20:17:15.497Z,42.67
2022-12-25T20:19:47.983Z,39.45
2022-12-25T20:22:19.919Z,41.20
2022-12-25T20:24:51.895Z,41.75
2022-12-25T20:27:23.878Z,42.60
2022-12-25T20:29:56.049Z,42.30
2022-12-25T20:32:29.673Z,40.85
2022-12-25T20:35:01.687Z,39.30
2022-12-25T20:37:34.217Z,40.03
2022-12-25T20:40:07.231Z,34.42
2022-12-25T20:42:39.324Z,36.83
2022-12-25T20:45:12.641Z,37.60
2022-12-25T20:47:44.623Z,31.45
2022-12-25T20:50:16.765Z,40.38
2022-12-25T20:52:48.728Z,34.42
2022-12-25T20:55:20.766Z,38.25
2022-12-25T20:57:52.925Z,36.08
2022-12-25T21:00:24.989Z,44.53
2022-12-25T21:02:57.190Z,40.95
2022-12-25T21:05:29.332Z,37.72
2022-12-25T21:08:01.642Z,46.10
2022-12-25T21:10:35.386Z,51.17
2022-12-25T21:13:07.387Z,48.80
2022-12-25T21:15:45.302Z,44.78
2022-12-25T21:18:20.086Z,46.95
2022-12-25T21:20:56.032Z,49.80
2022-12-25T21:23:29.500Z,43.17
2022-12-25T21:26:15.641Z,49.55
2022-12-25T21:28:54.138Z,45.78
2022-12-25T21:31:26.764Z,47.45
2022-12-25T21:33:59.406Z,47.33
2022-12-25T21:36:34.262Z,50.55
2022-12-25T21:39:08.613Z,52.83
2022-12-25T21:41:40.601Z,44.22
2022-12-25T21:44:12.573Z,46.03
2022-12-25T21:46:44.634Z,46.78
2022-12-25T21:49:37.610Z,47.70
2022-12-25T21:52:09.666Z,46.97
2022-12-25T21:54:41.725Z,42.00
2022-12-25T21:57:13.683Z,50.30
2022-12-25T21:59:45.739Z,47.80
2022-12-25T22:02:17.869Z,42.47
2022-12-25T22:04:49.961Z,42.90
2022-12-25T22:07:22.096Z,37.47
2022-12-25T22:09:54.149Z,33.17
2022-12-25T22:12:55.268Z,36.00
2022-12-25T22:15:45.943Z,43.38
2022-12-25T22:18:36.302Z,40.40
2022-12-25T22:23:40.163Z,46.35
2022-12-25T22:26:17.306Z,44.58
2022-12-25T22:28:52.550Z,46.05
2022-12-25T22:31:24.523Z,44.00
2022-12-25T22:33:56.560Z,41.45
2022-12-25T22:36:28.556Z,40.45
2022-12-25T22:39:00.521Z,49.03
2022-12-25T22:41:33.849Z,44.60
2022-12-25T22:44:16.971Z,38.58
2022-12-25T22:46:50.824Z,50.47
2022-12-25T22:49:23.815Z,51.70
2022-12-25T22:51:56.271Z,53.95
2022-12-25T22:54:31.414Z,52.75
2022-12-25T22:57:04.011Z,52.83
2022-12-25T22:59:36.105Z,49.70
2022-12-25T23:02:08.464Z,47.47
2022-12-25T23:04:40.533Z,48.05
2022-12-25T23:07:14.599Z,48.55
2022-12-25T23:09:46.751Z,53.67
2022-12-25T23:12:37.463Z,53.25
2022-12-25T23:15:09.915Z,59.47
2022-12-25T23:18:00.234Z,52.33
2022-12-25T23:23:41.691Z,54.25
2022-12-25T23:26:16.617Z,51.45
2022-12-25T23:29:07.011Z,50.83
2022-12-25T23:34:12.868Z,65.82
2022-12-25T23:36:44.879Z,71.10
2022-12-25T23:39:17.020Z,64.03
2022-12-25T23:41:49.130Z,69.50
2022-12-25T23:44:21.883Z,57.00
2022-12-25T23:46:54.594Z,60.83
2022-12-25T23:49:27.587Z,60.60
2022-12-25T23:51:59.621Z,71.35
2022-12-25T23:54:32.903Z,67.13
2022-12-25T23:57:05.824Z,60.22
2022-12-25T23:59:37.800Z,62.40
